Time;durP1;ratioP1;P1;durP2;ratioP2;P2;SDS_P1;SDS_P2;PMS_P1;PMS_P2;Temp;Humidity;BMP_temperature;BMP_pressure;BME280_temperature;BME280_humidity;BME280_pressure;Samples;Min_cycle;Max_cycle;Signal;HPM_P1;HPM_P2
2023/04/24 00:02:01;;;;;;;9.68;4.00;;;10.80;99.90;;;;;;5093380;28;20063;-62
2023/04/24 00:04:28;;;;;;;4.95;3.72;;;10.80;99.90;;;;;;5093210;28;20105;-61
2023/04/24 00:06:56;;;;;;;6.93;3.97;;;10.80;99.90;;;;;;5074808;28;20081;-61
2023/04/24 00:09:24;;;;;;;5.45;3.80;;;10.80;99.90;;;;;;5091034;28;20492;-61
2023/04/24 00:11:51;;;;;;;5.30;3.90;;;10.70;99.90;;;;;;5074980;28;20058;-62
2023/04/24 00:14:18;;;;;;;6.65;4.35;;;10.70;99.90;;;;;;5092713;28;20055;-61
2023/04/24 00:16:46;;;;;;;8.77;4.65;;;10.70;99.90;;;;;;5093174;28;20052;-61
2023/04/24 00:19:13;;;;;;;6.28;4.55;;;10.70;99.90;;;;;;5092833;28;20449;-61
2023/04/24 00:21:40;;;;;;;6.05;4.47;;;10.60;99.90;;;;;;5074487;28;20113;-61
2023/04/24 00:24:08;;;;;;;6.30;4.40;;;10.60;99.90;;;;;;5093205;28;20102;-62
2023/04/24 00:26:35;;;;;;;6.85;4.10;;;10.60;99.90;;;;;;5093032;28;20044;-62
2023/04/24 00:29:02;;;;;;;5.65;4.10;;;10.60;99.90;;;;;;5074128;28;20048;-62
2023/04/24 00:31:29;;;;;;;4.88;3.60;;;10.60;99.90;;;;;;5074855;28;20055;-61
2023/04/24 00:33:58;;;;;;;4.03;2.58;;;10.60;99.90;;;;;;5074909;28;20097;-61
2023/04/24 00:36:26;;;;;;;3.85;2.65;;;10.60;99.90;;;;;;5092128;28;20069;-62
2023/04/24 00:38:53;;;;;;;3.78;2.20;;;10.60;99.90;;;;;;5092394;28;20484;-61
2023/04/24 00:41:20;;;;;;;4.10;2.70;;;10.50;99.90;;;;;;5074588;28;20476;-62
2023/04/24 00:43:47;;;;;;;3.58;2.58;;;10.50;99.90;;;;;;5073947;28;20055;-62
2023/04/24 00:46:15;;;;;;;3.15;2.13;;;10.50;99.90;;;;;;5092541;28;20388;-61
2023/04/24 00:48:42;;;;;;;3.25;2.50;;;10.50;99.90;;;;;;5091911;28;20439;-61
2023/04/24 00:51:10;;;;;;;2.90;2.20;;;10.50;99.90;;;;;;5092380;28;20039;-61
2023/04/24 00:53:37;;;;;;;3.22;2.30;;;10.50;99.90;;;;;;5092230;28;20040;-61
2023/04/24 00:56:05;;;;;;;3.20;2.30;;;10.40;99.90;;;;;;5074039;28;20055;-61
2023/04/24 00:58:32;;;;;;;3.67;2.10;;;10.40;99.90;;;;;;5074197;28;20101;-61
2023/04/24 01:01:00;;;;;;;2.83;1.90;;;10.40;99.90;;;;;;5092411;28;20044;-61
2023/04/24 01:03:31;;;;;;;2.90;1.77;;;10.30;99.90;;;;;;5091407;28;20063;-61
2023/04/24 01:05:59;;;;;;;2.88;1.90;;;10.30;99.90;;;;;;5092216;28;20506;-61
2023/04/24 01:08:29;;;;;;;2.30;1.58;;;10.30;99.90;;;;;;5074524;28;20618;-63
2023/04/24 01:10:57;;;;;;;2.60;1.55;;;10.20;99.90;;;;;;5091528;28;20106;-62
2023/04/24 01:13:24;;;;;;;2.47;1.60;;;10.20;99.90;;;;;;5092217;28;20044;-62
2023/04/24 01:15:52;;;;;;;2.80;1.60;;;10.20;99.90;;;;;;5090097;28;20555;-62
2023/04/24 01:18:18;;;;;;;2.13;1.50;;;10.20;99.90;;;;;;5091457;28;20048;-62
2023/04/24 01:20:46;;;;;;;2.20;1.60;;;10.20;99.90;;;;;;5092216;28;20044;-62
2023/04/24 01:23:15;;;;;;;2.80;1.40;;;10.20;99.90;;;;;;5092219;28;20048;-62
2023/04/24 01:25:42;;;;;;;2.65;1.60;;;10.20;99.90;;;;;;5091535;28;20040;-62
2023/04/24 01:28:09;;;;;;;2.25;1.60;;;10.20;99.90;;;;;;5092188;28;20089;-63
2023/04/24 01:30:36;;;;;;;2.40;1.40;;;10.20;99.90;;;;;;5073985;28;20102;-61
2023/04/24 01:33:03;;;;;;;2.95;1.60;;;10.20;99.90;;;;;;5091784;28;20051;-62
2023/04/24 01:35:30;;;;;;;3.22;1.67;;;10.10;99.90;;;;;;5092105;28;20078;-63
2023/04/24 01:37:57;;;;;;;2.00;1.40;;;10.10;99.90;;;;;;5091478;28;20150;-63
2023/04/24 01:40:25;;;;;;;4.38;1.90;;;10.10;99.90;;;;;;5073857;28;20133;-61
2023/04/24 01:42:53;;;;;;;2.30;1.67;;;10.10;99.90;;;;;;5074130;28;20147;-62
2023/04/24 01:45:20;;;;;;;2.22;1.50;;;10.10;99.90;;;;;;5071119;28;20557;-63
2023/04/24 01:47:48;;;;;;;4.20;1.88;;;10.10;99.90;;;;;;5074149;28;20056;-62
2023/04/24 01:50:15;;;;;;;4.28;2.20;;;10.10;99.90;;;;;;5089986;28;20403;-62
2023/04/24 01:52:43;;;;;;;2.20;1.63;;;10.10;99.90;;;;;;5091310;28;20083;-62
2023/04/24 01:55:10;;;;;;;2.35;1.88;;;10.00;99.90;;;;;;5074012;28;20450;-62
2023/04/24 01:57:39;;;;;;;2.60;1.90;;;10.00;99.90;;;;;;5073797;28;20052;-61
2023/04/24 02:00:08;;;;;;;2.83;2.22;;;10.00;99.90;;;;;;5091345;28;20048;-63
2023/04/24 02:02:35;;;;;;;2.47;1.88;;;10.00;99.90;;;;;;5071705;28;20048;-62
2023/04/24 02:05:02;;;;;;;3.58;2.20;;;9.90;99.90;;;;;;5093435;28;20044;-62
2023/04/24 02:07:29;;;;;;;2.92;2.22;;;9.90;99.90;;;;;;5095038;28;20044;-62
2023/04/24 02:09:56;;;;;;;5.70;2.30;;;10.00;99.90;;;;;;5077425;28;20067;-62
2023/04/24 02:12:23;;;;;;;3.28;2.35;;;9.90;99.90;;;;;;5077397;28;20055;-61
2023/04/24 02:14:51;;;;;;;2.90;2.47;;;10.00;99.90;;;;;;5076881;28;20426;-62
2023/04/24 02:17:19;;;;;;;3.22;2.38;;;9.90;99.90;;;;;;5077399;28;20059;-60
2023/04/24 02:19:46;;;;;;;3.72;2.90;;;9.90;99.90;;;;;;5095229;28;20124;-61
2023/04/24 02:22:13;;;;;;;3.75;2.65;;;9.90;99.90;;;;;;5095092;28;20052;-62
2023/04/24 02:24:40;;;;;;;3.17;2.60;;;9.90;99.90;;;;;;5077177;28;20412;-63
2023/04/24 02:27:07;;;;;;;3.50;2.95;;;9.90;99.90;;;;;;5076341;28;20052;-62
2023/04/24 02:29:34;;;;;;;3.88;3.17;;;9.90;99.90;;;;;;5092880;28;20112;-61
2023/04/24 02:32:02;;;;;;;6.07;3.85;;;9.90;99.90;;;;;;5077079;28;20480;-61
2023/04/24 02:34:30;;;;;;;4.13;3.53;;;9.90;99.90;;;;;;5092585;28;20048;-62
2023/04/24 02:36:56;;;;;;;4.60;3.50;;;10.00;99.90;;;;;;5094821;28;20054;-60
2023/04/24 02:39:23;;;;;;;4.78;3.83;;;9.90;99.90;;;;;;5094747;28;20051;-62
2023/04/24 02:41:50;;;;;;;5.60;4.63;;;9.90;99.90;;;;;;5094116;28;21429;-62
2023/04/24 02:44:18;;;;;;;6.03;3.65;;;9.90;99.90;;;;;;5095069;28;20052;-61
2023/04/24 02:46:44;;;;;;;5.03;4.07;;;9.90;99.90;;;;;;5094726;28;20051;-61
2023/04/24 02:49:13;;;;;;;5.30;4.13;;;9.90;99.90;;;;;;5076283;28;20447;-61
2023/04/24 02:51:41;;;;;;;5.32;4.70;;;9.90;99.90;;;;;;5074482;28;20044;-62
2023/04/24 02:54:09;;;;;;;5.43;4.53;;;9.90;99.90;;;;;;5076380;28;20080;-61
2023/04/24 02:56:36;;;;;;;6.05;4.95;;;9.90;99.90;;;;;;5093987;28;20047;-61
2023/04/24 02:59:03;;;;;;;6.60;5.00;;;10.00;99.90;;;;;;5094348;28;20098;-62
2023/04/24 03:01:30;;;;;;;6.13;4.53;;;9.90;99.90;;;;;;5076688;28;20381;-62
2023/04/24 03:03:57;;;;;;;5.70;4.57;;;10.00;99.90;;;;;;5093735;28;20076;-62
2023/04/24 03:06:28;;;;;;;5.93;4.63;;;10.00;99.90;;;;;;5094365;28;20138;-61
2023/04/24 03:08:54;;;;;;;6.13;4.78;;;10.00;99.90;;;;;;5092662;28;20044;-61
2023/04/24 03:11:21;;;;;;;7.43;4.90;;;10.00;99.90;;;;;;5075563;28;20044;-62
2023/04/24 03:13:48;;;;;;;6.78;5.43;;;10.00;99.90;;;;;;5094428;28;20044;-62
2023/04/24 03:16:15;;;;;;;7.78;5.45;;;10.00;99.90;;;;;;5093693;28;20074;-62
2023/04/24 03:18:42;;;;;;;6.65;4.97;;;10.00;99.90;;;;;;5093726;28;20480;-62
2023/04/24 03:21:09;;;;;;;7.03;5.90;;;10.00;99.90;;;;;;5094062;28;20112;-63
2023/04/24 03:23:37;;;;;;;7.97;6.20;;;10.00;99.90;;;;;;5093416;28;20557;-61
2023/04/24 03:26:05;;;;;;;7.82;6.30;;;10.00;99.90;;;;;;5092086;28;20109;-61
2023/04/24 03:28:32;;;;;;;8.27;6.72;;;10.00;99.90;;;;;;5075998;28;20053;-60
2023/04/24 03:30:59;;;;;;;9.20;6.90;;;10.00;99.90;;;;;;5093338;28;20434;-61
2023/04/24 03:33:26;;;;;;;9.52;6.57;;;10.00;99.90;;;;;;5075518;28;20097;-61
2023/04/24 03:35:53;;;;;;;9.70;7.07;;;10.00;99.90;;;;;;5094153;28;20120;-62
2023/04/24 03:38:19;;;;;;;8.93;6.88;;;10.10;99.90;;;;;;5075184;28;20052;-61
2023/04/24 03:40:48;;;;;;;9.13;6.50;;;10.00;99.90;;;;;;5075769;28;20152;-61
2023/04/24 03:43:15;;;;;;;9.82;7.53;;;10.10;99.90;;;;;;5093564;28;20047;-61
2023/04/24 03:45:42;;;;;;;8.55;6.93;;;10.10;99.90;;;;;;5093198;28;20044;-62
2023/04/24 03:48:08;;;;;;;9.20;7.90;;;10.10;99.90;;;;;;5093482;28;20040;-61
2023/04/24 03:50:35;;;;;;;9.73;8.00;;;10.10;99.90;;;;;;5075657;28;20052;-62
2023/04/24 03:53:02;;;;;;;11.73;8.35;;;10.10;99.90;;;;;;5072839;28;20451;-63
2023/04/24 03:55:30;;;;;;;10.05;8.32;;;10.10;99.90;;;;;;5075526;28;20063;-62
2023/04/24 03:57:58;;;;;;;11.80;9.48;;;10.10;99.90;;;;;;5075354;28;20044;-63
2023/04/24 04:00:25;;;;;;;11.60;9.55;;;10.10;99.90;;;;;;5092646;28;20044;-61
2023/04/24 04:02:52;;;;;;;12.27;9.43;;;10.10;99.90;;;;;;5093228;28;20454;-61
2023/04/24 04:05:19;;;;;;;13.13;9.50;;;10.10;99.90;;;;;;5093377;28;20055;-61
2023/04/24 04:07:46;;;;;;;11.65;9.98;;;10.10;99.90;;;;;;5092831;28;20393;-62
2023/04/24 04:10:13;;;;;;;13.18;10.05;;;10.00;99.90;;;;;;5093090;28;20036;-62
2023/04/24 04:12:40;;;;;;;11.75;10.30;;;10.00;99.90;;;;;;5092500;28;20093;-61
2023/04/24 04:15:09;;;;;;;12.45;9.05;;;10.00;99.90;;;;;;5092848;28;20044;-62
2023/04/24 04:17:37;;;;;;;12.73;9.93;;;10.00;99.90;;;;;;5093162;28;20044;-62
2023/04/24 04:20:09;;;;;;;13.77;10.55;;;10.00;99.90;;;;;;5092281;28;20048;-61
2023/04/24 04:22:36;;;;;;;16.05;9.73;;;10.00;99.90;;;;;;5091874;28;20117;-62
2023/04/24 04:25:03;;;;;;;15.18;9.65;;;10.00;99.90;;;;;;5093011;28;20067;-62
2023/04/24 04:27:31;;;;;;;12.95;9.15;;;10.00;99.90;;;;;;5071450;28;20063;-62
2023/04/24 04:29:59;;;;;;;12.77;9.30;;;10.00;99.90;;;;;;5092502;28;20052;-61
2023/04/24 04:32:27;;;;;;;9.10;8.10;;;10.00;99.90;;;;;;5074788;28;20052;-62
2023/04/24 04:34:54;;;;;;;13.07;8.32;;;10.00;99.90;;;;;;5074122;28;20121;-61
2023/04/24 04:37:21;;;;;;;9.77;8.40;;;10.00;99.90;;;;;;5092748;28;20056;-63
2023/04/24 04:39:48;;;;;;;11.95;8.73;;;10.00;99.90;;;;;;5092422;28;20067;-63
2023/04/24 04:42:15;;;;;;;11.68;9.02;;;10.00;99.90;;;;;;5091793;28;20047;-61
2023/04/24 04:44:42;;;;;;;10.68;8.98;;;10.00;99.90;;;;;;5072590;28;20483;-61
2023/04/24 04:47:10;;;;;;;12.52;9.57;;;10.00;99.90;;;;;;5074269;28;20040;-60
2023/04/24 04:49:39;;;;;;;11.10;9.10;;;10.00;99.90;;;;;;5073889;28;20475;-60
2023/04/24 04:52:06;;;;;;;8.35;6.85;;;9.90;99.90;;;;;;5092409;28;20123;-61
2023/04/24 04:54:33;;;;;;;9.32;7.20;;;10.00;99.90;;;;;;5092187;28;20483;-61
2023/04/24 04:57:00;;;;;;;11.25;7.28;;;9.90;99.90;;;;;;5091301;28;20553;-60
2023/04/24 04:59:27;;;;;;;8.48;5.72;;;10.00;99.90;;;;;;5073626;28;20432;-61
2023/04/24 05:01:54;;;;;;;5.85;4.32;;;10.00;99.90;;;;;;5085956;28;20044;-60
2023/04/24 05:04:21;;;;;;;5.57;3.60;;;10.10;99.90;;;;;;5066330;28;20061;-61
2023/04/24 05:06:50;;;;;;;5.07;3.22;;;10.10;99.90;;;;;;5069130;28;20048;-62
2023/04/24 05:09:17;;;;;;;4.15;3.20;;;10.10;99.90;;;;;;5052315;28;20123;-61
2023/04/24 05:11:44;;;;;;;5.53;3.50;;;10.20;99.90;;;;;;5069113;28;20385;-61
2023/04/24 05:14:12;;;;;;;7.13;4.28;;;10.20;99.90;;;;;;5053147;28;20056;-61
2023/04/24 05:16:39;;;;;;;5.68;4.30;;;10.20;99.90;;;;;;5065475;28;20055;-62
2023/04/24 05:19:06;;;;;;;5.40;3.80;;;10.20;99.90;;;;;;5052813;28;20048;-61
2023/04/24 05:21:33;;;;;;;7.30;3.78;;;10.30;99.90;;;;;;5070022;28;20049;-60
2023/04/24 05:24:01;;;;;;;4.53;3.08;;;10.20;99.90;;;;;;5068487;28;20451;-60
2023/04/24 05:26:28;;;;;;;3.92;2.80;;;10.30;99.90;;;;;;5067560;28;20052;-62
2023/04/24 05:28:55;;;;;;;3.72;2.80;;;10.20;99.90;;;;;;5051815;28;20056;-61
2023/04/24 05:31:22;;;;;;;3.75;2.50;;;10.30;99.90;;;;;;5069784;28;20385;-61
2023/04/24 05:33:49;;;;;;;4.13;2.53;;;10.30;99.90;;;;;;5069163;28;20488;-61
2023/04/24 05:36:16;;;;;;;3.58;2.70;;;10.30;99.90;;;;;;5053367;28;20053;-61
2023/04/24 05:38:43;;;;;;;4.68;2.97;;;10.40;99.90;;;;;;5071144;28;20459;-61
2023/04/24 05:41:11;;;;;;;4.60;3.15;;;10.30;99.90;;;;;;5056859;28;20055;-64
2023/04/24 05:43:38;;;;;;;4.88;3.33;;;10.40;99.90;;;;;;5056493;28;20078;-61
2023/04/24 05:46:05;;;;;;;4.47;3.25;;;10.40;99.90;;;;;;5074152;28;20053;-61
2023/04/24 05:48:32;;;;;;;3.50;2.95;;;10.30;99.90;;;;;;5054781;28;20061;-62
2023/04/24 05:50:59;;;;;;;3.28;2.40;;;10.30;99.90;;;;;;5056085;28;20094;-62
2023/04/24 05:53:26;;;;;;;6.00;2.50;;;10.30;99.90;;;;;;5053456;28;20088;-61
2023/04/24 05:55:53;;;;;;;5.13;2.50;;;10.30;99.90;;;;;;5058430;28;20082;-61
2023/04/24 05:58:21;;;;;;;3.38;2.20;;;10.30;99.90;;;;;;5072871;28;20044;-61
2023/04/24 06:00:49;;;;;;;5.30;2.80;;;10.30;99.90;;;;;;5074523;28;20041;-61
2023/04/24 06:03:16;;;;;;;5.10;2.97;;;10.30;99.90;;;;;;5084781;28;20059;-61
2023/04/24 06:05:43;;;;;;;3.85;2.72;;;10.20;99.90;;;;;;5094765;28;20063;-62
2023/04/24 06:08:10;;;;;;;5.00;2.85;;;10.20;99.90;;;;;;5074679;28;20084;-62
2023/04/24 06:10:38;;;;;;;4.32;2.85;;;10.20;99.90;;;;;;5075265;28;20062;-62
2023/04/24 06:13:05;;;;;;;5.28;3.28;;;10.20;99.90;;;;;;5070073;28;20059;-61
2023/04/24 06:15:34;;;;;;;5.38;2.83;;;10.20;99.90;;;;;;5074267;28;20337;-63
2023/04/24 06:18:01;;;;;;;5.28;3.53;;;10.20;99.90;;;;;;5093803;28;20093;-62
2023/04/24 06:20:28;;;;;;;6.85;3.60;;;10.20;99.90;;;;;;5089524;28;20051;-62
2023/04/24 06:22:55;;;;;;;6.63;3.65;;;10.20;99.90;;;;;;5091457;28;20044;-62
2023/04/24 06:25:22;;;;;;;5.30;4.32;;;10.20;99.90;;;;;;5074450;28;20083;-62
2023/04/24 06:27:49;;;;;;;6.97;4.05;;;10.20;99.90;;;;;;5085424;28;20097;-62
2023/04/24 06:30:16;;;;;;;6.47;5.13;;;10.30;99.90;;;;;;5091522;28;20055;-62
2023/04/24 06:32:44;;;;;;;8.90;4.95;;;10.30;99.90;;;;;;5074643;28;20052;-61
2023/04/24 06:35:12;;;;;;;8.43;4.85;;;10.40;99.90;;;;;;5089718;28;20514;-62
2023/04/24 06:37:40;;;;;;;6.80;4.40;;;10.50;99.90;;;;;;5093986;28;20050;-61
2023/04/24 06:40:08;;;;;;;6.63;4.75;;;10.50;99.90;;;;;;5091383;28;20372;-61
2023/04/24 06:42:35;;;;;;;6.75;4.20;;;10.50;99.90;;;;;;5089658;28;20044;-62
2023/04/24 06:45:03;;;;;;;7.03;4.07;;;10.50;99.90;;;;;;5073011;28;20095;-61
2023/04/24 06:47:30;;;;;;;7.03;4.15;;;10.50;99.90;;;;;;5073808;28;20044;-60
2023/04/24 06:49:58;;;;;;;7.57;3.60;;;10.50;99.90;;;;;;5088303;28;20493;-61
2023/04/24 06:52:25;;;;;;;10.50;2.80;;;10.50;99.90;;;;;;5073601;28;20541;-61
2023/04/24 06:54:52;;;;;;;4.15;2.50;;;10.50;99.90;;;;;;5092124;28;20289;-60
2023/04/24 06:57:20;;;;;;;3.28;2.33;;;10.50;99.90;;;;;;5085922;28;20446;-61
2023/04/24 06:59:47;;;;;;;3.03;1.85;;;10.60;99.90;;;;;;5090574;28;20036;-60
2023/04/24 07:02:14;;;;;;;4.72;1.77;;;10.60;99.90;;;;;;5090470;28;20044;-62
2023/04/24 07:04:41;;;;;;;3.65;1.80;;;10.60;99.90;;;;;;5090331;28;20495;-61
2023/04/24 07:07:12;;;;;;;4.65;2.50;;;10.60;99.90;;;;;;5089515;28;20043;-62
2023/04/24 07:09:42;;;;;;;3.65;1.67;;;10.70;99.90;;;;;;5090129;28;20549;-62
2023/04/24 07:12:10;;;;;;;4.85;1.90;;;10.70;99.90;;;;;;5088821;28;20044;-61
2023/04/24 07:14:37;;;;;;;3.95;1.67;;;10.70;99.90;;;;;;5088841;28;20404;-61
2023/04/24 07:17:05;;;;;;;2.50;1.80;;;10.70;99.90;;;;;;5072003;28;20373;-63
2023/04/24 07:19:32;;;;;;;5.25;2.00;;;10.70;99.90;;;;;;5090962;28;20467;-60
2023/04/24 07:21:59;;;;;;;6.95;2.00;;;10.70;99.90;;;;;;5072474;28;20047;-61
2023/04/24 07:24:27;;;;;;;4.47;2.00;;;10.70;99.90;;;;;;5070095;28;20067;-61
2023/04/24 07:26:55;;;;;;;4.68;2.50;;;10.70;99.90;;;;;;5069772;28;20051;-61
2023/04/24 07:29:22;;;;;;;3.92;2.25;;;10.60;99.90;;;;;;5087356;28;20048;-61
2023/04/24 07:31:48;;;;;;;3.78;2.30;;;10.60;99.90;;;;;;5088144;28;20048;-61
2023/04/24 07:34:15;;;;;;;3.90;2.13;;;10.60;99.90;;;;;;5090219;28;20047;-63
2023/04/24 07:36:42;;;;;;;6.93;2.90;;;10.60;99.90;;;;;;5086757;28;20047;-61
2023/04/24 07:39:09;;;;;;;5.85;2.60;;;10.50;99.90;;;;;;5088721;28;20095;-61
2023/04/24 07:41:37;;;;;;;7.85;2.22;;;10.50;99.90;;;;;;5087234;28;20070;-62
2023/04/24 07:44:04;;;;;;;6.70;2.38;;;10.40;99.90;;;;;;5086516;28;20052;-61
2023/04/24 07:46:31;;;;;;;5.18;2.20;;;10.50;99.90;;;;;;5091477;28;20044;-61
2023/04/24 07:48:59;;;;;;;4.88;2.40;;;10.50;99.90;;;;;;5090278;28;20045;-62
2023/04/24 07:51:26;;;;;;;5.28;2.60;;;10.50;99.90;;;;;;5089281;28;20449;-62
2023/04/24 07:53:54;;;;;;;7.80;3.17;;;10.50;99.90;;;;;;5071318;28;20056;-63
2023/04/24 07:56:21;;;;;;;5.85;2.92;;;10.50;99.90;;;;;;5071006;28;20048;-61
2023/04/24 07:58:49;;;;;;;6.13;3.15;;;10.50;99.90;;;;;;5090628;28;20089;-62
2023/04/24 08:01:16;;;;;;;7.35;3.95;;;10.50;99.90;;;;;;5090954;28;20052;-61
2023/04/24 08:03:43;;;;;;;10.45;4.70;;;10.50;99.90;;;;;;5088538;28;20059;-62
2023/04/24 08:06:10;;;;;;;11.43;5.97;;;10.50;99.90;;;;;;5090015;28;20044;-62
2023/04/24 08:08:37;;;;;;;11.02;6.43;;;10.40;99.90;;;;;;5084850;28;20453;-62
2023/04/24 08:11:04;;;;;;;13.73;7.50;;;10.40;99.90;;;;;;5088436;28;20052;-62
2023/04/24 08:13:31;;;;;;;16.20;8.48;;;10.40;99.90;;;;;;5089667;28;20048;-62
2023/04/24 08:15:59;;;;;;;17.08;9.13;;;10.20;99.90;;;;;;5070254;28;20060;-61
2023/04/24 08:18:26;;;;;;;16.73;9.73;;;10.30;99.90;;;;;;5068677;28;20063;-61
2023/04/24 08:20:53;;;;;;;18.00;10.55;;;10.30;99.90;;;;;;5083961;28;20049;-62
2023/04/24 08:23:20;;;;;;;16.27;9.88;;;10.20;99.90;;;;;;5068593;28;20098;-61
2023/04/24 08:25:46;;;;;;;18.92;10.35;;;10.20;99.90;;;;;;5082581;28;20044;-61
2023/04/24 08:28:19;;;;;;;15.80;10.18;;;10.10;99.90;;;;;;5088223;28;20048;-61
2023/04/24 08:30:46;;;;;;;17.98;9.13;;;10.10;99.90;;;;;;5087212;28;20047;-62
2023/04/24 08:33:15;;;;;;;13.68;9.15;;;10.10;99.90;;;;;;5090568;28;20056;-61
2023/04/24 08:35:42;;;;;;;14.45;9.25;;;10.10;99.90;;;;;;5089473;28;20090;-61
2023/04/24 08:38:08;;;;;;;17.25;9.20;;;10.00;99.90;;;;;;5071572;28;20056;-62
2023/04/24 08:40:38;;;;;;;16.25;9.38;;;9.90;99.90;;;;;;5070352;28;20048;-62
2023/04/24 08:43:05;;;;;;;13.80;8.68;;;9.90;99.90;;;;;;5091396;28;20484;-61
2023/04/24 08:45:33;;;;;;;13.63;8.68;;;9.90;99.90;;;;;;5089250;28;20051;-61
2023/04/24 08:48:01;;;;;;;15.85;9.40;;;9.80;99.90;;;;;;5072259;28;20055;-61
2023/04/24 08:50:30;;;;;;;16.80;9.18;;;9.70;99.90;;;;;;5087485;28;20395;-61
2023/04/24 08:52:58;;;;;;;15.93;9.02;;;9.70;99.90;;;;;;5087513;28;20040;-62
2023/04/24 08:55:25;;;;;;;17.63;9.40;;;9.70;99.90;;;;;;5088898;28;20525;-62
2023/04/24 08:57:54;;;;;;;17.10;8.90;;;9.70;99.90;;;;;;5085747;28;20503;-61
2023/04/24 09:00:22;;;;;;;15.15;8.65;;;9.70;99.90;;;;;;5088353;28;20075;-61
2023/04/24 09:02:50;;;;;;;15.18;9.38;;;9.70;99.90;;;;;;5070913;28;21771;-62
2023/04/24 09:05:18;;;;;;;16.67;8.88;;;9.60;99.90;;;;;;5089280;28;20047;-62
2023/04/24 09:07:52;;;;;;;12.95;8.50;;;9.60;99.90;;;;;;5085491;28;20165;-62
2023/04/24 09:10:19;;;;;;;17.23;8.88;;;9.70;99.90;;;;;;5072066;28;20093;-63
2023/04/24 09:12:47;;;;;;;14.95;8.88;;;9.70;99.90;;;;;;5067671;28;20139;-61
2023/04/24 09:15:14;;;;;;;17.58;9.27;;;9.60;99.90;;;;;;5071026;28;20522;-61
2023/04/24 09:17:40;;;;;;;12.52;7.60;;;9.80;99.90;;;;;;5082763;28;20097;-62
2023/04/24 09:20:09;;;;;;;13.27;6.93;;;9.70;99.90;;;;;;5072280;28;20075;-61
2023/04/24 09:22:37;;;;;;;11.13;6.63;;;9.80;99.90;;;;;;5087987;28;20052;-61
2023/04/24 09:25:08;;;;;;;13.68;6.22;;;9.80;99.90;;;;;;5090199;28;20052;-62
2023/04/24 09:27:35;;;;;;;12.52;6.57;;;9.70;99.90;;;;;;5062865;28;20458;-63
2023/04/24 09:30:04;;;;;;;9.98;6.43;;;9.80;99.90;;;;;;5072035;28;20051;-62
2023/04/24 09:32:31;;;;;;;9.30;5.43;;;9.90;99.90;;;;;;5070903;28;20145;-61
2023/04/24 09:35:09;;;;;;;10.40;6.32;;;10.00;99.90;;;;;;5072611;28;20547;-62
2023/04/24 09:37:37;;;;;;;14.15;6.22;;;10.00;99.90;;;;;;5069330;28;20056;-60
2023/04/24 09:40:14;;;;;;;12.95;6.85;;;10.00;99.90;;;;;;5088220;28;20493;-62
2023/04/24 09:42:44;;;;;;;12.98;5.30;;;9.90;99.90;;;;;;5085912;28;20044;-62
2023/04/24 09:45:12;;;;;;;14.18;5.55;;;9.90;99.90;;;;;;5088498;28;20040;-61
2023/04/24 09:47:39;;;;;;;12.32;5.47;;;9.80;99.90;;;;;;5089354;28;20472;-62
2023/04/24 09:50:17;;;;;;;14.07;5.63;;;9.90;99.90;;;;;;5070485;28;20060;-62
2023/04/24 09:52:45;;;;;;;11.05;5.00;;;9.70;99.90;;;;;;5070524;28;20058;-60
2023/04/24 09:55:16;;;;;;;10.70;4.70;;;9.90;99.90;;;;;;5084152;28;20495;-62
2023/04/24 09:57:51;;;;;;;12.00;4.28;;;9.90;99.90;;;;;;5070339;28;21020;-61
2023/04/24 10:00:26;;;;;;;9.88;4.15;;;10.10;99.90;;;;;;5067600;28;20049;-62
2023/04/24 10:03:00;;;;;;;9.85;4.30;;;10.20;99.90;;;;;;5072302;28;20044;-62
2023/04/24 10:05:29;;;;;;;6.50;4.13;;;10.40;99.90;;;;;;5086127;28;20050;-62
2023/04/24 10:08:03;;;;;;;6.13;3.25;;;10.50;99.90;;;;;;5089427;28;20078;-62
2023/04/24 10:10:32;;;;;;;7.30;3.10;;;10.60;99.90;;;;;;5086016;28;20052;-61
2023/04/24 10:13:00;;;;;;;7.85;3.28;;;10.80;99.90;;;;;;5068837;28;20056;-63
2023/04/24 10:15:27;;;;;;;6.60;3.25;;;10.80;99.90;;;;;;5085601;28;20060;-62
2023/04/24 10:17:54;;;;;;;10.35;3.47;;;11.10;99.90;;;;;;5087485;28;20101;-62
2023/04/24 10:20:23;;;;;;;4.53;2.88;;;11.30;99.90;;;;;;5069270;28;20056;-62
2023/04/24 10:22:52;;;;;;;7.97;3.05;;;11.20;99.90;;;;;;5069363;28;20049;-62
2023/04/24 10:25:20;;;;;;;8.52;3.13;;;11.30;99.90;;;;;;5072733;28;20419;-61
2023/04/24 10:27:50;;;;;;;6.85;2.80;;;11.30;99.90;;;;;;5070329;28;20545;-62
2023/04/24 10:30:18;;;;;;;6.97;3.10;;;11.50;99.90;;;;;;5073319;28;20109;-62
2023/04/24 10:32:45;;;;;;;7.63;2.88;;;11.60;99.90;;;;;;5071743;28;20051;-64
2023/04/24 10:35:14;;;;;;;7.55;3.03;;;11.80;99.90;;;;;;5089799;28;20089;-63
2023/04/24 10:37:45;;;;;;;9.38;3.15;;;11.70;99.90;;;;;;5089984;28;20085;-62
2023/04/24 10:40:16;;;;;;;5.47;2.80;;;11.50;99.90;;;;;;5074170;28;20135;-62
2023/04/24 10:42:47;;;;;;;11.88;3.13;;;11.50;99.90;;;;;;5073320;28;20648;-62
2023/04/24 10:45:21;;;;;;;5.72;2.75;;;11.70;99.90;;;;;;5075027;28;20056;-62
2023/04/24 10:48:02;;;;;;;7.22;3.03;;;11.90;99.90;;;;;;5071044;28;20083;-62
2023/04/24 10:50:30;;;;;;;21.88;3.00;;;11.80;99.90;;;;;;5092515;28;20059;-60
2023/04/24 10:53:07;;;;;;;8.05;2.85;;;11.60;99.90;;;;;;5084549;28;20044;-63
2023/04/24 10:55:42;;;;;;;8.50;2.55;;;11.70;99.90;;;;;;5071748;28;20055;-62
2023/04/24 10:58:09;;;;;;;7.10;2.63;;;11.60;99.90;;;;;;5091458;28;20446;-63
2023/04/24 11:00:40;;;;;;;10.48;2.88;;;11.40;99.90;;;;;;5073507;28;20060;-62
2023/04/24 11:03:07;;;;;;;9.90;2.85;;;11.20;99.90;;;;;;5092419;28;20044;-63
2023/04/24 11:06:00;;;;;;;8.45;2.42;;;11.20;99.90;;;;;;5089385;28;20051;-62
2023/04/24 11:08:31;;;;;;;6.20;2.83;;;11.00;99.90;;;;;;5055271;28;20059;-63
2023/04/24 11:11:02;;;;;;;7.80;2.65;;;10.90;99.90;;;;;;5092137;28;20040;-62
2023/04/24 11:13:56;;;;;;;6.07;2.13;;;10.80;99.90;;;;;;5075151;28;20087;-62
2023/04/24 11:16:29;;;;;;;7.47;2.60;;;10.60;99.90;;;;;;5073171;28;20056;-61
2023/04/24 11:19:02;;;;;;;7.32;2.42;;;10.70;99.90;;;;;;5072929;28;20097;-62
2023/04/24 11:21:33;;;;;;;8.45;3.10;;;10.70;99.90;;;;;;5072425;28;20058;-62
2023/04/24 11:24:20;;;;;;;6.50;2.38;;;10.90;99.90;;;;;;5089903;28;20172;-62
2023/04/24 11:26:47;;;;;;;7.13;2.60;;;10.90;99.90;;;;;;5091133;28;20503;-62
2023/04/24 11:29:13;;;;;;;7.18;2.20;;;11.10;99.90;;;;;;5088575;28;20117;-62
2023/04/24 11:31:48;;;;;;;6.30;2.38;;;11.00;99.90;;;;;;5089547;28;20040;-62
2023/04/24 11:34:16;;;;;;;8.23;2.33;;;11.00;99.90;;;;;;5089497;28;20503;-61
2023/04/24 11:36:44;;;;;;;8.27;2.30;;;11.00;99.90;;;;;;5073627;28;20051;-61
2023/04/24 11:39:12;;;;;;;8.40;2.28;;;10.70;99.90;;;;;;5090433;28;20040;-61
2023/04/24 11:41:39;;;;;;;5.38;1.98;;;10.70;99.90;;;;;;5066718;28;20132;-62
2023/04/24 11:44:08;;;;;;;6.72;2.28;;;10.80;99.90;;;;;;5060500;28;20051;-62
2023/04/24 11:46:37;;;;;;;10.27;2.50;;;10.90;99.90;;;;;;5076095;28;20055;-62
2023/04/24 11:49:06;;;;;;;7.20;2.22;;;11.10;99.90;;;;;;5089060;28;20298;-62
2023/04/24 11:51:33;;;;;;;6.45;1.83;;;11.00;99.90;;;;;;5088497;28;20044;-61
2023/04/24 11:54:00;;;;;;;5.47;1.98;;;10.90;99.90;;;;;;5071202;28;20051;-61
2023/04/24 11:56:27;;;;;;;6.20;2.50;;;10.90;99.90;;;;;;5090302;28;20097;-62
2023/04/24 11:58:54;;;;;;;6.95;2.42;;;11.00;99.90;;;;;;5087534;28;20052;-62
2023/04/24 12:01:22;;;;;;;10.73;2.10;;;10.90;99.90;;;;;;5087151;28;20040;-61
2023/04/24 12:03:50;;;;;;;8.65;2.65;;;10.70;99.90;;;;;;5087698;28;20055;-60
2023/04/24 12:06:20;;;;;;;5.22;1.95;;;10.50;99.90;;;;;;5066293;28;20048;-62
2023/04/24 12:08:49;;;;;;;5.25;2.05;;;10.40;99.90;;;;;;5073110;28;20419;-62
2023/04/24 12:11:20;;;;;;;8.07;2.38;;;10.30;99.90;;;;;;5086527;28;20106;-62
2023/04/24 12:13:47;;;;;;;8.25;2.30;;;10.20;99.90;;;;;;5073016;28;20051;-61
2023/04/24 12:16:14;;;;;;;8.98;2.17;;;10.20;99.90;;;;;;5070988;28;20052;-62
2023/04/24 12:18:45;;;;;;;5.40;1.67;;;10.20;99.90;;;;;;5090731;28;20059;-62
2023/04/24 12:21:22;;;;;;;4.25;1.83;;;10.30;99.90;;;;;;5088377;28;21191;-62
2023/04/24 12:23:49;;;;;;;6.40;1.77;;;10.40;99.90;;;;;;5090039;28;20048;-60
2023/04/24 12:26:19;;;;;;;5.25;1.42;;;10.70;99.90;;;;;;5086967;28;20049;-62
2023/04/24 12:28:49;;;;;;;3.50;1.38;;;10.90;99.90;;;;;;5070864;28;20171;-60
2023/04/24 12:31:16;;;;;;;5.45;2.15;;;11.20;99.90;;;;;;5089218;28;20087;-61
2023/04/24 12:33:43;;;;;;;5.95;1.80;;;11.30;99.90;;;;;;5090434;28;20199;-62
2023/04/24 12:36:12;;;;;;;4.22;1.15;;;11.40;99.90;;;;;;5072231;28;20430;-61
2023/04/24 12:38:44;;;;;;;5.53;1.50;;;11.40;99.90;;;;;;5071197;28;20551;-62
2023/04/24 12:41:13;;;;;;;6.15;1.60;;;11.50;99.90;;;;;;5089637;28;20381;-61
2023/04/24 12:43:51;;;;;;;2.40;1.40;;;11.30;99.90;;;;;;5071183;28;20048;-61
2023/04/24 12:46:18;;;;;;;3.95;1.67;;;11.10;99.90;;;;;;5073175;28;21258;-61
2023/04/24 12:48:44;;;;;;;2.85;1.33;;;11.20;99.90;;;;;;5087745;28;20458;-62
2023/04/24 12:51:11;;;;;;;5.97;1.25;;;11.10;99.90;;;;;;5073125;28;20051;-61